Time;durP1;ratioP1;P1;durP2;ratioP2;P2;SDS_P1;SDS_P2;PMS_P1;PMS_P2;Temp;Humidity;BMP_temperature;BMP_pressure;BME280_temperature;BME280_humidity;BME280_pressure;Samples;Min_cycle;Max_cycle;Signal;HPM_P1;HPM_P2
2021/12/02 00:02:22;;;;;;;8.97;2.27;;;7.30;99.90;;;;;;5065531;28;20207;-73
2021/12/02 00:05:09;;;;;;;2.35;1.65;;;7.30;99.90;;;;;;5066532;28;20581;-73
2021/12/02 00:07:54;;;;;;;3.25;1.55;;;7.30;99.90;;;;;;5075343;28;20269;-73
2021/12/02 00:10:41;;;;;;;4.32;1.80;;;7.40;99.90;;;;;;5068042;28;20239;-72
2021/12/02 00:13:30;;;;;;;2.92;1.92;;;7.30;99.90;;;;;;5068442;28;20318;-73
2021/12/02 00:16:22;;;;;;;2.90;1.65;;;7.30;99.90;;;;;;5064181;28;20208;-73
2021/12/02 00:22:19;;;;;;;3.83;1.55;;;7.40;99.90;;;;;;5008525;28;20204;-73
2021/12/02 00:25:06;;;;;;;5.40;1.98;;;7.40;99.90;;;;;;5069296;28;20239;-73
2021/12/02 00:27:52;;;;;;;5.63;2.05;;;7.40;99.90;;;;;;5065710;28;20219;-73
2021/12/02 00:30:39;;;;;;;3.08;1.85;;;7.40;99.90;;;;;;5064880;28;20220;-73
2021/12/02 00:33:27;;;;;;;5.68;2.50;;;7.50;99.90;;;;;;5065770;28;20200;-73
2021/12/02 00:36:13;;;;;;;5.00;2.53;;;7.40;99.90;;;;;;5070868;28;20208;-73
2021/12/02 00:39:02;;;;;;;2.70;1.90;;;7.50;99.90;;;;;;5065503;28;20192;-72
2021/12/02 00:41:49;;;;;;;4.38;2.30;;;7.50;99.90;;;;;;5063675;28;20227;-72
2021/12/02 00:44:36;;;;;;;5.70;2.03;;;7.50;99.90;;;;;;5062592;28;20286;-73
2021/12/02 00:47:24;;;;;;;3.95;1.95;;;7.40;99.90;;;;;;5068571;28;20625;-73
2021/12/02 00:50:11;;;;;;;6.38;2.15;;;7.50;99.90;;;;;;5071147;28;20228;-72
2021/12/02 00:52:57;;;;;;;4.30;1.85;;;7.50;99.90;;;;;;5061218;28;20196;-72
2021/12/02 00:55:43;;;;;;;3.40;1.70;;;7.40;99.90;;;;;;5070760;28;20203;-72
2021/12/02 00:58:30;;;;;;;4.70;2.22;;;7.40;99.90;;;;;;5072286;28;20200;-72
2021/12/02 01:01:16;;;;;;;6.95;2.20;;;7.40;99.90;;;;;;5067274;28;20594;-73
2021/12/02 01:04:06;;;;;;;4.97;2.00;;;7.40;99.90;;;;;;5062681;28;20221;-72
2021/12/02 01:06:54;;;;;;;6.07;2.10;;;7.40;99.90;;;;;;5076356;28;20199;-73
2021/12/02 01:09:40;;;;;;;5.22;2.20;;;7.50;99.90;;;;;;5076571;28;20696;-72
2021/12/02 01:12:25;;;;;;;3.70;2.00;;;7.40;99.90;;;;;;5068186;28;20290;-73
2021/12/02 01:15:11;;;;;;;4.35;2.38;;;7.40;99.90;;;;;;5075671;28;20199;-73
2021/12/02 01:17:56;;;;;;;5.70;2.55;;;7.40;99.90;;;;;;5079564;28;20212;-73
2021/12/02 01:20:46;;;;;;;6.88;2.30;;;7.30;99.90;;;;;;5066458;28;20237;-73
2021/12/02 01:23:33;;;;;;;5.05;2.50;;;7.40;99.90;;;;;;5068804;28;20204;-72
2021/12/02 01:26:20;;;;;;;3.92;2.53;;;7.30;99.90;;;;;;5072572;28;20200;-73
2021/12/02 01:29:05;;;;;;;6.10;2.78;;;7.30;99.90;;;;;;5071653;28;20588;-73
2021/12/02 01:31:54;;;;;;;7.63;2.85;;;7.30;99.90;;;;;;5066703;28;20205;-73
2021/12/02 01:34:42;;;;;;;5.22;2.60;;;7.30;99.90;;;;;;5075384;28;20248;-72
2021/12/02 01:37:29;;;;;;;4.07;2.83;;;7.30;99.90;;;;;;5067873;28;20669;-73
2021/12/02 01:40:15;;;;;;;4.68;2.20;;;7.20;99.90;;;;;;5080733;28;20750;-71
2021/12/02 01:43:01;;;;;;;5.00;3.20;;;7.20;99.90;;;;;;5069165;28;20207;-72
2021/12/02 01:45:47;;;;;;;6.55;2.38;;;7.20;99.90;;;;;;5072640;28;21030;-72
2021/12/02 01:48:32;;;;;;;8.50;2.80;;;7.20;99.90;;;;;;5079329;28;20208;-72
2021/12/02 01:51:21;;;;;;;3.60;2.55;;;7.20;99.90;;;;;;5073558;28;20519;-72
2021/12/02 01:54:10;;;;;;;6.10;3.15;;;7.20;99.90;;;;;;5077820;28;20197;-72
2021/12/02 01:57:04;;;;;;;4.85;2.65;;;7.20;99.90;;;;;;5068811;28;20199;-73
2021/12/02 01:59:53;;;;;;;4.97;2.10;;;7.20;99.90;;;;;;5067337;28;20709;-72
2021/12/02 02:02:40;;;;;;;7.57;2.65;;;7.20;99.90;;;;;;5073744;28;20191;-72
2021/12/02 02:05:27;;;;;;;3.35;2.20;;;7.20;99.90;;;;;;5072325;28;20285;-73
2021/12/02 02:08:17;;;;;;;8.10;2.45;;;7.20;99.90;;;;;;5064371;28;20630;-73
2021/12/02 02:11:05;;;;;;;3.95;2.20;;;7.10;99.90;;;;;;5073748;28;20211;-73
2021/12/02 02:13:50;;;;;;;6.22;2.25;;;7.10;99.90;;;;;;5068965;28;20310;-73
2021/12/02 02:16:38;;;;;;;8.00;3.00;;;7.20;99.90;;;;;;5074587;28;20681;-73
2021/12/02 02:19:28;;;;;;;9.77;4.15;;;7.20;99.90;;;;;;5072175;28;20205;-72
2021/12/02 02:22:20;;;;;;;7.85;2.70;;;7.20;99.90;;;;;;5076923;28;20247;-72
2021/12/02 02:25:11;;;;;;;4.05;2.30;;;7.10;99.90;;;;;;5073150;28;20697;-72
2021/12/02 02:27:56;;;;;;;4.10;2.60;;;7.20;99.90;;;;;;5071559;28;20200;-72
2021/12/02 02:30:42;;;;;;;11.68;2.40;;;7.20;99.90;;;;;;5065997;28;20220;-72
2021/12/02 02:33:35;;;;;;;8.60;2.53;;;7.20;99.90;;;;;;5067091;28;20339;-72
2021/12/02 02:36:22;;;;;;;4.35;2.80;;;7.20;99.90;;;;;;5066505;28;20705;-72
2021/12/02 02:39:09;;;;;;;7.35;2.60;;;7.20;99.90;;;;;;5067367;28;20204;-73
2021/12/02 02:41:57;;;;;;;10.43;2.95;;;7.20;99.90;;;;;;5073193;28;20224;-72
2021/12/02 02:44:43;;;;;;;4.47;2.50;;;7.20;99.90;;;;;;5074293;28;20205;-72
2021/12/02 02:47:29;;;;;;;4.13;2.70;;;7.20;99.90;;;;;;5074183;28;20357;-72
2021/12/02 02:50:16;;;;;;;3.58;2.33;;;7.30;99.90;;;;;;5061932;28;20287;-73
2021/12/02 02:53:05;;;;;;;10.18;2.60;;;7.30;99.90;;;;;;5068901;28;20780;-72
2021/12/02 02:56:02;;;;;;;5.28;2.20;;;7.20;99.90;;;;;;5068133;28;20689;-72
2021/12/02 02:59:01;;;;;;;6.03;2.50;;;7.20;99.90;;;;;;5074949;28;20334;-72
2021/12/02 03:01:58;;;;;;;7.10;2.67;;;7.20;99.90;;;;;;5069896;28;20913;-72
2021/12/02 03:04:52;;;;;;;5.88;2.67;;;7.30;99.90;;;;;;5063160;28;20792;-73
2021/12/02 03:07:41;;;;;;;5.50;2.13;;;7.30;99.90;;;;;;5075174;28;20323;-72
2021/12/02 03:10:38;;;;;;;7.88;2.92;;;7.30;99.90;;;;;;5072379;28;20469;-72
2021/12/02 03:13:36;;;;;;;5.93;2.38;;;7.30;99.90;;;;;;5067025;28;20193;-72
2021/12/02 03:16:43;;;;;;;4.68;2.25;;;7.30;99.90;;;;;;5068486;28;20204;-72
2021/12/02 03:19:30;;;;;;;4.65;2.38;;;7.30;99.90;;;;;;5068050;28;20220;-72
2021/12/02 03:22:17;;;;;;;13.13;3.40;;;7.30;99.90;;;;;;5069222;28;20228;-73
2021/12/02 03:25:04;;;;;;;3.90;2.53;;;7.30;99.90;;;;;;5078593;28;20728;-72
2021/12/02 03:27:49;;;;;;;6.10;2.63;;;7.20;99.90;;;;;;5069254;28;20707;-72
2021/12/02 03:30:36;;;;;;;11.88;3.20;;;7.20;99.90;;;;;;5068367;28;20289;-72
2021/12/02 03:33:22;;;;;;;6.43;2.88;;;7.20;99.90;;;;;;5072008;28;20192;-72
2021/12/02 03:36:08;;;;;;;3.97;2.63;;;7.20;99.90;;;;;;5070049;28;20276;-72
2021/12/02 03:38:54;;;;;;;10.25;3.80;;;7.20;99.90;;;;;;5070463;28;20450;-72
2021/12/02 03:41:41;;;;;;;5.22;2.47;;;7.30;99.90;;;;;;5073809;28;20305;-72
2021/12/02 03:44:26;;;;;;;6.93;3.28;;;7.20;99.90;;;;;;5066198;28;20933;-72
2021/12/02 03:47:13;;;;;;;5.88;4.13;;;7.20;99.90;;;;;;5069733;28;20204;-72
2021/12/02 03:49:59;;;;;;;6.65;3.20;;;7.20;99.90;;;;;;5058450;28;20227;-72
2021/12/02 03:52:45;;;;;;;7.72;3.95;;;7.20;99.90;;;;;;5071778;28;20200;-72
2021/12/02 03:55:30;;;;;;;9.38;3.28;;;7.10;99.90;;;;;;5069074;28;20275;-72
2021/12/02 03:58:16;;;;;;;7.38;3.10;;;7.20;99.90;;;;;;5065701;28;20219;-72
2021/12/02 04:01:02;;;;;;;6.00;3.45;;;7.20;99.90;;;;;;5079575;28;20308;-72
2021/12/02 04:03:49;;;;;;;5.88;3.03;;;7.20;99.90;;;;;;5067020;28;20414;-72
2021/12/02 04:06:35;;;;;;;6.72;3.45;;;7.10;99.90;;;;;;5066389;28;20211;-72
2021/12/02 04:09:21;;;;;;;9.68;3.75;;;7.10;99.90;;;;;;5069031;28;20249;-72
2021/12/02 04:12:12;;;;;;;7.07;3.00;;;7.20;99.90;;;;;;5074583;28;20196;-73
2021/12/02 04:15:02;;;;;;;7.82;3.38;;;7.20;99.90;;;;;;5077046;28;20316;-72
2021/12/02 04:17:48;;;;;;;8.88;2.80;;;7.20;99.90;;;;;;5070999;28;20199;-73
2021/12/02 04:20:37;;;;;;;4.40;3.00;;;7.20;99.90;;;;;;5069293;28;20334;-73
2021/12/02 04:23:24;;;;;;;7.22;2.78;;;7.20;99.90;;;;;;5063546;28;20197;-72
2021/12/02 04:26:09;;;;;;;5.88;2.63;;;7.20;99.90;;;;;;5066312;28;20605;-73
2021/12/02 04:28:55;;;;;;;6.55;3.15;;;7.20;99.90;;;;;;5068172;28;20199;-72
2021/12/02 04:31:42;;;;;;;6.30;2.90;;;7.20;99.90;;;;;;5070768;28;20316;-72
2021/12/02 04:34:28;;;;;;;4.20;2.90;;;7.20;99.90;;;;;;5069990;28;20196;-72
2021/12/02 04:37:15;;;;;;;4.82;2.85;;;7.20;99.90;;;;;;5071498;28;20441;-72
2021/12/02 04:40:01;;;;;;;6.38;2.92;;;7.20;99.90;;;;;;5069011;28;20258;-71
2021/12/02 04:42:46;;;;;;;8.27;2.88;;;7.20;99.90;;;;;;5067019;28;20270;-72
2021/12/02 04:45:32;;;;;;;6.50;2.45;;;7.10;99.90;;;;;;5081285;28;20722;-71
2021/12/02 04:48:18;;;;;;;4.57;2.13;;;7.00;99.90;;;;;;5071118;28;20254;-72
2021/12/02 04:51:04;;;;;;;6.53;2.20;;;6.90;99.90;;;;;;5076143;28;20223;-72
2021/12/02 04:53:51;;;;;;;3.00;1.83;;;6.80;99.90;;;;;;5068165;28;20663;-72
2021/12/02 04:56:37;;;;;;;5.55;2.55;;;6.70;99.90;;;;;;5076920;28;20544;-72
2021/12/02 04:59:22;;;;;;;6.25;2.40;;;6.60;99.90;;;;;;5070011;28;20651;-71
2021/12/02 05:02:08;;;;;;;5.00;1.60;;;6.50;99.90;;;;;;5076837;28;20702;-72
2021/12/02 05:04:54;;;;;;;4.47;2.25;;;6.40;99.90;;;;;;5073014;28;20200;-72
2021/12/02 05:07:39;;;;;;;2.25;1.30;;;6.30;99.90;;;;;;5077555;28;20567;-72
2021/12/02 05:10:27;;;;;;;3.35;1.20;;;6.30;99.90;;;;;;5072174;28;20594;-72
2021/12/02 05:13:13;;;;;;;5.88;1.60;;;6.20;99.90;;;;;;5077982;28;20299;-72
2021/12/02 05:15:59;;;;;;;4.35;1.75;;;6.10;99.90;;;;;;5072986;28;20205;-72
2021/12/02 05:18:44;;;;;;;16.85;1.98;;;6.10;99.90;;;;;;5069522;28;20196;-72
2021/12/02 05:21:30;;;;;;;2.25;1.27;;;6.00;99.90;;;;;;5076481;28;20248;-72
2021/12/02 05:24:15;;;;;;;2.20;1.15;;;5.90;99.90;;;;;;5076078;28;20207;-72
2021/12/02 05:27:02;;;;;;;2.25;1.00;;;5.90;99.90;;;;;;5069052;28;20568;-72
2021/12/02 05:29:48;;;;;;;1.52;0.90;;;6.00;99.90;;;;;;5071096;28;20351;-72
2021/12/02 05:32:34;;;;;;;2.35;0.90;;;6.10;99.90;;;;;;5072410;28;20200;-72
2021/12/02 05:35:20;;;;;;;2.67;1.27;;;6.10;99.90;;;;;;5074617;28;20204;-72
2021/12/02 05:38:06;;;;;;;1.70;1.00;;;6.10;99.90;;;;;;5067172;28;20247;-72
2021/12/02 05:40:52;;;;;;;2.53;0.93;;;6.10;99.90;;;;;;5071934;28;20224;-72
2021/12/02 05:43:38;;;;;;;1.60;0.80;;;6.10;99.90;;;;;;5076328;28;20220;-72
2021/12/02 05:46:24;;;;;;;3.15;1.00;;;6.10;99.90;;;;;;5076513;28;20302;-72
2021/12/02 05:49:10;;;;;;;1.40;0.75;;;6.10;99.90;;;;;;5070676;28;20199;-72
2021/12/02 05:51:55;;;;;;;1.50;1.00;;;6.10;99.90;;;;;;5069889;28;20204;-72
2021/12/02 05:54:41;;;;;;;4.72;1.23;;;6.00;99.90;;;;;;5073683;28;20196;-72
2021/12/02 05:57:27;;;;;;;1.35;0.85;;;5.90;99.90;;;;;;5063290;28;20208;-72
2021/12/02 06:00:15;;;;;;;4.28;1.70;;;5.80;99.90;;;;;;5069057;28;20227;-73
2021/12/02 06:03:01;;;;;;;4.65;0.80;;;5.80;99.90;;;;;;5069617;28;20219;-73
2021/12/02 06:05:47;;;;;;;4.93;0.90;;;5.70;99.90;;;;;;5079317;28;20269;-72
2021/12/02 06:08:33;;;;;;;3.15;0.60;;;5.80;99.90;;;;;;5067409;28;20212;-72
2021/12/02 06:11:19;;;;;;;2.75;1.00;;;5.80;99.90;;;;;;5070945;28;20351;-72
2021/12/02 06:14:04;;;;;;;2.78;1.00;;;5.70;99.90;;;;;;5065338;28;20676;-72
2021/12/02 06:16:51;;;;;;;3.00;0.82;;;5.70;99.90;;;;;;5062660;28;20851;-72
2021/12/02 06:19:37;;;;;;;1.58;0.93;;;5.60;99.90;;;;;;5069062;28;20208;-73
2021/12/02 06:22:23;;;;;;;2.80;1.10;;;5.60;99.90;;;;;;5066354;28;20701;-72
2021/12/02 06:28:11;;;;;;;1.83;0.93;;;5.60;99.90;;;;;;5068736;28;20774;-72
2021/12/02 06:30:56;;;;;;;2.03;1.02;;;5.70;99.90;;;;;;5071235;28;20220;-72
2021/12/02 06:33:43;;;;;;;2.35;1.45;;;5.70;99.90;;;;;;5070579;28;20216;-72
2021/12/02 06:36:29;;;;;;;4.05;1.20;;;5.70;99.90;;;;;;5068754;28;20506;-72
2021/12/02 06:39:15;;;;;;;3.00;1.15;;;5.70;99.90;;;;;;5066810;28;20690;-72
2021/12/02 06:42:01;;;;;;;2.90;1.60;;;5.70;99.90;;;;;;5067412;28;20712;-72
2021/12/02 06:44:46;;;;;;;1.88;1.10;;;5.70;99.90;;;;;;5067562;28;20282;-72
2021/12/02 06:47:35;;;;;;;4.05;1.30;;;5.80;99.90;;;;;;5072299;28;20211;-72
2021/12/02 06:50:22;;;;;;;4.05;1.75;;;5.80;99.90;;;;;;5074441;28;20219;-72
2021/12/02 06:53:08;;;;;;;2.60;1.02;;;5.90;99.90;;;;;;5072928;28;20212;-72
2021/12/02 06:55:54;;;;;;;5.20;1.58;;;5.90;99.90;;;;;;5072681;28;20208;-72
2021/12/02 06:58:39;;;;;;;3.97;1.42;;;5.90;99.90;;;;;;5071914;28;20358;-72
2021/12/02 07:01:25;;;;;;;4.32;1.42;;;5.90;99.90;;;;;;5067270;28;20434;-72
2021/12/02 07:04:11;;;;;;;2.13;1.27;;;5.90;99.90;;;;;;5066655;28;20696;-72
2021/12/02 07:06:57;;;;;;;2.85;1.80;;;5.90;99.90;;;;;;5063140;28;20644;-72
2021/12/02 07:09:44;;;;;;;2.22;1.30;;;5.90;99.90;;;;;;5064542;28;20208;-73
2021/12/02 07:12:32;;;;;;;14.05;2.10;;;6.00;99.90;;;;;;5073459;28;20211;-72
2021/12/02 07:15:20;;;;;;;3.63;1.60;;;6.00;99.90;;;;;;5067420;28;20216;-72
2021/12/02 07:18:12;;;;;;;3.92;1.20;;;6.00;99.90;;;;;;5066316;28;20724;-72
2021/12/02 07:20:58;;;;;;;4.32;1.80;;;6.00;99.90;;;;;;5063419;28;20225;-72
2021/12/02 07:23:45;;;;;;;12.80;3.42;;;6.00;99.90;;;;;;5063188;28;20791;-72
2021/12/02 07:26:34;;;;;;;4.07;2.75;;;5.90;99.90;;;;;;5062706;28;20568;-72
2021/12/02 07:29:19;;;;;;;6.35;3.10;;;6.00;99.90;;;;;;5064725;28;20212;-72
2021/12/02 07:32:06;;;;;;;3.55;2.67;;;6.00;99.90;;;;;;5069887;28;20199;-73
2021/12/02 07:34:55;;;;;;;6.35;4.00;;;5.90;99.90;;;;;;5080982;28;20208;-72
2021/12/02 07:37:46;;;;;;;6.55;2.60;;;5.90;99.90;;;;;;5069254;28;20216;-72
2021/12/02 07:40:35;;;;;;;5.30;3.60;;;5.90;99.90;;;;;;5066978;28;20224;-72
2021/12/02 07:43:22;;;;;;;9.07;4.40;;;6.00;99.90;;;;;;5064965;28;20717;-72
2021/12/02 07:46:09;;;;;;;3.85;2.40;;;6.00;99.90;;;;;;5060952;28;20685;-72
2021/12/02 07:48:55;;;;;;;5.20;2.25;;;5.90;99.90;;;;;;5065921;28;20204;-73
2021/12/02 07:51:44;;;;;;;4.55;2.60;;;5.90;99.90;;;;;;5079690;28;20222;-72
2021/12/02 07:54:33;;;;;;;5.43;1.70;;;5.90;99.90;;;;;;5072466;28;20325;-72
2021/12/02 07:57:20;;;;;;;3.13;1.45;;;5.90;99.90;;;;;;5069748;28;20291;-72
2021/12/02 08:00:07;;;;;;;7.88;2.33;;;6.00;99.90;;;;;;5067206;28;20791;-73
2021/12/02 08:02:54;;;;;;;5.10;1.77;;;6.00;99.90;;;;;;5062327;28;20254;-72
2021/12/02 08:05:41;;;;;;;3.95;2.08;;;6.00;99.90;;;;;;5059830;28;20584;-72
2021/12/02 08:08:27;;;;;;;2.67;1.92;;;6.00;99.90;;;;;;5063791;28;20213;-72
2021/12/02 08:11:13;;;;;;;4.80;2.60;;;6.00;99.90;;;;;;5063005;28;20224;-73
2021/12/02 08:14:01;;;;;;;7.20;2.70;;;6.00;99.90;;;;;;5064331;28;20880;-72
2021/12/02 08:16:47;;;;;;;5.00;3.05;;;6.10;99.90;;;;;;5071268;28;20684;-73
2021/12/02 08:19:33;;;;;;;12.63;7.28;;;6.10;99.90;;;;;;5073757;28;20660;-72
2021/12/02 08:22:18;;;;;;;15.25;7.25;;;6.10;99.90;;;;;;5073854;28;20555;-73
2021/12/02 08:25:05;;;;;;;13.27;6.75;;;6.10;99.90;;;;;;5070033;28;20203;-73
2021/12/02 08:27:51;;;;;;;9.07;4.30;;;6.10;99.90;;;;;;5065657;28;20207;-73
2021/12/02 08:30:39;;;;;;;5.47;3.15;;;6.10;99.90;;;;;;5071237;28;20239;-72
2021/12/02 08:33:25;;;;;;;5.10;2.95;;;6.10;99.90;;;;;;5061534;28;20213;-73
2021/12/02 08:36:10;;;;;;;4.10;2.00;;;6.10;99.90;;;;;;5061030;28;20212;-73
2021/12/02 08:38:58;;;;;;;4.18;2.60;;;6.10;99.90;;;;;;5068150;28;20207;-73
2021/12/02 08:41:47;;;;;;;6.25;2.80;;;6.20;99.90;;;;;;5068009;28;20239;-73
2021/12/02 08:44:37;;;;;;;5.10;1.33;;;6.20;99.90;;;;;;5067195;28;20228;-73
2021/12/02 08:47:25;;;;;;;11.00;3.67;;;6.20;99.90;;;;;;5072673;28;20697;-73
2021/12/02 08:50:11;;;;;;;5.43;2.25;;;6.20;99.90;;;;;;5063813;28;20536;-72
2021/12/02 08:52:58;;;;;;;22.25;8.23;;;6.20;99.90;;;;;;5068147;28;20200;-73
2021/12/02 08:55:44;;;;;;;14.50;5.05;;;6.20;99.90;;;;;;5065645;28;20258;-72
2021/12/02 08:58:29;;;;;;;15.60;5.97;;;6.20;99.90;;;;;;5071240;28;20585;-72
2021/12/02 09:01:15;;;;;;;25.92;10.05;;;6.20;99.90;;;;;;5070824;28;20223;-72
2021/12/02 09:04:03;;;;;;;11.30;3.40;;;6.20;99.90;;;;;;5062700;28;20232;-72
2021/12/02 09:06:49;;;;;;;5.75;3.25;;;6.10;99.90;;;;;;5067079;28;20693;-72
2021/12/02 09:09:35;;;;;;;7.28;2.90;;;6.10;99.90;;;;;;5065962;28;21096;-72
2021/12/02 09:12:21;;;;;;;7.93;3.63;;;6.10;99.90;;;;;;5061721;28;20208;-72
2021/12/02 09:15:08;;;;;;;5.07;2.63;;;6.10;99.90;;;;;;5059767;28;20689;-73
2021/12/02 09:17:54;;;;;;;5.55;2.15;;;6.10;99.90;;;;;;5065544;28;20211;-73
2021/12/02 09:20:43;;;;;;;9.00;3.70;;;6.10;99.90;;;;;;5071124;28;20278;-73
2021/12/02 09:23:28;;;;;;;6.93;4.22;;;6.10;99.90;;;;;;5066730;28;20220;-73
2021/12/02 09:26:14;;;;;;;6.43;3.42;;;6.00;99.90;;;;;;5063789;28;20678;-71
2021/12/02 09:29:00;;;;;;;3.28;1.40;;;6.00;99.90;;;;;;5064635;28;20204;-72
2021/12/02 09:31:46;;;;;;;4.10;1.70;;;6.10;99.90;;;;;;5070419;28;20267;-71
2021/12/02 09:34:32;;;;;;;5.15;2.38;;;6.20;99.90;;;;;;5070527;28;20198;-71
2021/12/02 09:37:19;;;;;;;2.58;1.80;;;6.20;99.90;;;;;;5067384;28;20674;-71
2021/12/02 09:40:07;;;;;;;6.53;2.00;;;6.30;99.90;;;;;;5070265;28;20227;-72
2021/12/02 09:42:54;;;;;;;4.18;1.85;;;6.30;99.90;;;;;;5068101;28;20298;-71
2021/12/02 09:45:40;;;;;;;2.90;1.85;;;6.20;99.90;;;;;;5072555;28;20219;-71
2021/12/02 09:48:27;;;;;;;5.00;1.83;;;6.20;99.90;;;;;;5076496;28;20571;-71
2021/12/02 09:51:16;;;;;;;3.20;1.92;;;6.30;99.90;;;;;;5071913;28;20339;-71
2021/12/02 09:54:07;;;;;;;5.63;2.35;;;6.30;99.90;;;;;;5067734;28;20200;-71
2021/12/02 09:56:56;;;;;;;8.00;2.60;;;6.30;99.90;;;;;;5072364;28;20692;-71
2021/12/02 09:59:49;;;;;;;4.68;2.50;;;6.30;99.90;;;;;;5073092;28;20209;-71
2021/12/02 10:02:41;;;;;;;5.05;2.80;;;6.30;99.90;;;;;;5065382;28;20207;-71
2021/12/02 10:05:33;;;;;;;5.13;2.25;;;6.40;99.90;;;;;;5070566;28;20576;-71
2021/12/02 10:08:24;;;;;;;4.40;3.38;;;6.40;99.90;;;;;;5071554;28;20729;-71
2021/12/02 10:11:15;;;;;;;7.22;2.72;;;6.40;99.90;;;;;;5068923;28;20343;-71
2021/12/02 10:14:20;;;;;;;7.10;4.80;;;6.40;99.90;;;;;;5066986;28;20243;-71
2021/12/02 10:17:10;;;;;;;21.83;12.32;;;6.40;99.90;;;;;;5072782;28;20200;-71
2021/12/02 10:20:10;;;;;;;8.52;4.18;;;6.50;99.90;;;;;;5068586;28;20228;-71
2021/12/02 10:23:13;;;;;;;8.38;4.32;;;6.40;99.90;;;;;;5059506;28;20193;-71
2021/12/02 10:26:03;;;;;;;6.13;3.20;;;6.40;99.90;;;;;;5071853;28;20203;-72
2021/12/02 10:28:52;;;;;;;5.45;2.58;;;6.40;99.90;;;;;;5065935;28;20217;-71
2021/12/02 10:31:38;;;;;;;6.57;2.22;;;6.50;99.90;;;;;;5072335;28;20286;-71
2021/12/02 10:34:24;;;;;;;5.30;2.40;;;6.50;99.90;;;;;;5071775;28;20214;-71
2021/12/02 10:37:11;;;;;;;6.20;2.53;;;6.50;99.90;;;;;;5078606;28;20200;-71
2021/12/02 10:39:59;;;;;;;3.10;2.40;;;6.40;99.90;;;;;;5067063;28;20591;-71
2021/12/02 10:42:46;;;;;;;3.95;2.70;;;6.40;99.90;;;;;;5066300;28;20262;-71
2021/12/02 10:45:33;;;;;;;4.53;2.30;;;6.30;99.90;;;;;;5064341;28;20212;-70
2021/12/02 10:48:19;;;;;;;5.15;2.75;;;6.30;99.90;;;;;;5066406;28;20206;-71
2021/12/02 10:51:05;;;;;;;3.63;2.85;;;6.40;99.90;;;;;;5071829;28;20753;-70
2021/12/02 10:54:00;;;;;;;9.15;2.70;;;6.50;99.90;;;;;;5064510;28;20191;-71
2021/12/02 10:56:48;;;;;;;4.15;2.50;;;6.40;99.90;;;;;;5068796;28;20262;-71
2021/12/02 10:59:46;;;;;;;3.88;1.95;;;6.40;99.90;;;;;;5080849;28;20269;-70
2021/12/02 11:02:35;;;;;;;4.53;2.08;;;6.50;99.90;;;;;;5064150;28;20693;-71
2021/12/02 11:05:24;;;;;;;4.93;1.95;;;6.40;99.90;;;;;;5069809;28;20199;-71
2021/12/02 11:08:12;;;;;;;5.65;2.20;;;6.40;99.90;;;;;;5063820;28;21763;-71
2021/12/02 11:10:58;;;;;;;4.55;1.70;;;6.50;99.90;;;;;;5062694;28;20581;-71
2021/12/02 11:13:49;;;;;;;5.90;2.20;;;6.50;99.90;;;;;;5057754;28;20221;-70
2021/12/02 11:16:35;;;;;;;6.90;2.70;;;6.60;99.90;;;;;;5061741;28;20254;-72
2021/12/02 11:19:24;;;;;;;6.45;2.20;;;6.60;99.90;;;;;;5071944;28;20200;-72
2021/12/02 11:22:11;;;;;;;3.58;1.60;;;6.60;99.90;;;;;;5062115;28;20235;-72
2021/12/02 11:24:58;;;;;;;3.97;2.38;;;6.50;99.90;;;;;;5073707;28;20243;-72
2021/12/02 11:27:45;;;;;;;2.67;1.75;;;6.60;99.90;;;;;;5060446;28;20213;-72
2021/12/02 11:30:31;;;;;;;4.80;1.83;;;6.50;99.90;;;;;;5062080;28;20744;-72
2021/12/02 11:33:19;;;;;;;3.67;1.73;;;6.60;99.90;;;;;;5061053;28;20293;-72
2021/12/02 11:36:07;;;;;;;3.80;2.20;;;6.60;99.90;;;;;;5068794;28;20207;-72
2021/12/02 11:38:57;;;;;;;3.67;1.98;;;6.70;99.90;;;;;;5068678;28;20208;-72
2021/12/02 11:41:43;;;;;;;8.13;2.30;;;6.80;99.90;;;;;;5062687;28;20334;-72
2021/12/02 11:44:29;;;;;;;3.85;2.15;;;6.80;99.90;;;;;;5064213;28;20616;-72
2021/12/02 11:47:14;;;;;;;3.58;1.80;;;6.80;99.90;;;;;;5062404;28;20208;-70
2021/12/02 11:50:00;;;;;;;2.47;1.65;;;6.80;99.90;;;;;;5072239;28;20356;-70
2021/12/02 11:52:48;;;;;;;5.13;2.08;;;6.80;99.90;;;;;;5066292;28;20204;-71
2021/12/02 11:55:37;;;;;;;2.45;1.65;;;6.80;99.90;;;;;;5065907;28;20212;-70
2021/12/02 11:58:23;;;;;;;3.05;1.65;;;6.80;99.90;;;;;;5056213;28;20780;-72
2021/12/02 12:01:14;;;;;;;6.07;1.98;;;6.80;99.90;;;;;;5068084;28;20232;-72
2021/12/02 12:04:08;;;;;;;4.10;2.03;;;6.80;99.90;;;;;;5070795;28;20303;-72
2021/12/02 12:07:08;;;;;;;3.65;1.70;;;6.80;99.90;;;;;;5070300;28;20200;-72
2021/12/02 12:10:22;;;;;;;3.38;2.00;;;6.80;99.90;;;;;;5071310;28;20219;-72
2021/12/02 12:13:23;;;;;;;7.68;2.55;;;6.90;99.90;;;;;;5070626;28;20277;-72
2021/12/02 12:16:20;;;;;;;13.45;4.25;;;6.90;99.90;;;;;;5077433;28;20324;-72
2021/12/02 12:19:17;;;;;;;17.40;4.90;;;6.90;99.90;;;;;;5067959;28;20217;-72
2021/12/02 12:22:05;;;;;;;11.88;4.25;;;6.90;99.90;;;;;;5066278;28;20208;-72
2021/12/02 12:24:53;;;;;;;96.15;21.27;;;6.90;99.90;;;;;;5074111;28;20306;-72
2021/12/02 12:27:40;;;;;;;34.17;9.98;;;6.90;99.90;;;;;;5071197;28;20208;-72
2021/12/02 12:30:26;;;;;;;104.43;21.42;;;6.80;99.90;;;;;;5070975;28;20290;-72
2021/12/02 12:33:35;;;;;;;31.60;7.95;;;6.70;99.90;;;;;;5075481;28;20201;-72
2021/12/02 12:36:46;;;;;;;17.42;5.88;;;6.60;99.90;;;;;;5068327;28;20220;-71
2021/12/02 12:39:33;;;;;;;12.18;5.32;;;6.40;99.90;;;;;;5059319;28;20208;-72
2021/12/02 12:42:22;;;;;;;6.85;3.40;;;6.20;99.90;;;;;;5063529;28;20204;-71
2021/12/02 12:45:11;;;;;;;3.83;1.45;;;6.10;99.90;;;;;;5072626;28;20219;-71
2021/12/02 12:47:59;;;;;;;5.95;1.92;;;5.90;99.90;;;;;;5069666;28;20204;-72
2021/12/02 12:50:47;;;;;;;2.97;1.65;;;5.90;99.90;;;;;;5066235;28;20224;-71
2021/12/02 12:53:38;;;;;;;2.47;1.10;;;5.80;99.90;;;;;;5064971;28;20250;-72
2021/12/02 12:56:30;;;;;;;2.83;0.90;;;5.70;99.90;;;;;;5075052;28;20255;-72
2021/12/02 12:59:18;;;;;;;2.75;1.30;;;5.80;99.90;;;;;;5068696;28;20268;-72
2021/12/02 13:02:07;;;;;;;2.30;1.27;;;5.90;99.90;;;;;;5069478;28;20566;-72
2021/12/02 13:04:54;;;;;;;1.50;0.90;;;6.00;99.90;;;;;;5058574;28;20740;-72
2021/12/02 13:07:42;;;;;;;1.50;1.00;;;6.10;99.90;;;;;;5078869;28;20616;-72
2021/12/02 13:10:30;;;;;;;3.58;1.20;;;6.10;99.90;;;;;;5078722;28;20728;-72
2021/12/02 13:13:26;;;;;;;2.38;1.50;;;6.20;99.90;;;;;;5074679;28;20266;-72
2021/12/02 13:16:33;;;;;;;2.28;1.35;;;6.20;99.90;;;;;;5079259;28;20285;-72
2021/12/02 13:19:20;;;;;;;2.33;0.98;;;6.20;99.90;;;;;;5078486;28;20239;-72
2021/12/02 13:22:17;;;;;;;2.63;1.23;;;6.20;99.90;;;;;;5068481;28;20714;-72
2021/12/02 13:25:24;;;;;;;30.73;8.15;;;6.10;99.90;;;;;;5079818;28;20234;-72
2021/12/02 13:28:14;;;;;;;344.90;139.98;;;6.10;99.90;;;;;;5067466;28;20500;-72
2021/12/02 13:31:04;;;;;;;47.08;22.30;;;6.00;99.90;;;;;;5070910;28;20236;-74
2021/12/02 13:33:52;;;;;;;10.15;6.72;;;6.00;99.90;;;;;;5067939;28;20200;-73
2021/12/02 13:36:43;;;;;;;5.68;2.50;;;5.80;99.90;;;;;;5081694;28;20735;-73
2021/12/02 13:39:30;;;;;;;2.75;1.17;;;5.90;99.90;;;;;;5075564;28;20261;-71
2021/12/02 13:42:17;;;;;;;4.75;1.20;;;6.00;99.90;;;;;;5069503;28;20716;-72
2021/12/02 13:45:04;;;;;;;7.28;1.00;;;6.10;99.90;;;;;;5073783;28;20227;-72
2021/12/02 13:47:49;;;;;;;2.75;0.80;;;6.00;99.90;;;;;;5070393;28;20326;-72
2021/12/02 13:50:36;;;;;;;1.70;0.85;;;6.00;99.90;;;;;;5068379;28;20351;-72
2021/12/02 13:53:23;;;;;;;2.30;0.82;;;6.10;99.90;;;;;;5076610;28;20261;-72
2021/12/02 13:56:08;;;;;;;1.95;0.95;;;5.90;99.90;;;;;;5071286;28;20247;-73
2021/12/02 13:58:55;;;;;;;1.90;1.10;;;5.90;99.90;;;;;;5062886;28;20200;-73
2021/12/02 14:01:50;;;;;;;4.70;1.80;;;5.80;99.90;;;;;;5067179;28;20227;-74
2021/12/02 14:04:54;;;;;;;3.03;1.50;;;5.70;99.90;;;;;;5069077;28;20216;-73
2021/12/02 14:07:42;;;;;;;7.97;1.23;;;5.70;99.90;;;;;;5081415;28;20285;-71
2021/12/02 14:10:31;;;;;;;3.83;1.50;;;5.60;99.90;;;;;;5068105;28;20224;-72
2021/12/02 14:13:19;;;;;;;10.77;1.48;;;5.70;99.90;;;;;;5081817;28;20321;-71
2021/12/02 14:16:06;;;;;;;2.08;1.27;;;5.80;99.90;;;;;;5078092;28;20712;-72
2021/12/02 14:18:52;;;;;;;4.15;1.80;;;5.70;99.90;;;;;;5077300;28;20208;-71
2021/12/02 14:21:38;;;;;;;3.00;1.73;;;5.80;99.90;;;;;;5083184;22;20459;-71
2021/12/02 14:24:24;;;;;;;2.72;1.70;;;5.90;99.90;;;;;;5080074;28;20239;-71
2021/12/02 14:27:17;;;;;;;1.95;1.52;;;5.90;99.90;;;;;;5085962;28;20270;-71
2021/12/02 14:30:12;;;;;;;4.43;1.90;;;5.90;99.90;;;;;;5080969;28;20810;-71
2021/12/02 14:33:06;;;;;;;2.90;1.70;;;6.00;99.90;;;;;;5069558;28;20266;-71
2021/12/02 14:35:56;;;;;;;3.08;2.10;;;6.00;99.90;;;;;;5068284;28;20197;-71
2021/12/02 14:38:43;;;;;;;3.63;1.75;;;5.90;99.90;;;;;;5067701;28;20204;-70
2021/12/02 14:41:31;;;;;;;8.27;2.65;;;5.90;99.90;;;;;;5068293;28;20226;-71
2021/12/02 14:44:20;;;;;;;2.22;1.67;;;5.90;99.90;;;;;;5071751;28;20215;-71
2021/12/02 14:47:12;;;;;;;2.58;1.65;;;5.90;99.90;;;;;;5064759;28;20294;-71
2021/12/02 14:50:08;;;;;;;2.22;1.80;;;5.90;99.90;;;;;;5064064;28;20200;-71
2021/12/02 14:52:55;;;;;;;3.45;2.28;;;5.80;99.90;;;;;;5066100;28;20204;-72